Time;durP1;ratioP1;P1;durP2;ratioP2;P2;SDS_P1;SDS_P2;PMS_P1;PMS_P2;Temp;Humidity;BMP_temperature;BMP_pressure;BME280_temperature;BME280_humidity;BME280_pressure;Samples;Min_cycle;Max_cycle;Signal;HPM_P1;HPM_P2
2022/05/14 00:00:55;;;;;;;1.97;1.40;;;;;;;;;;5061833;28;20449;-78
2022/05/14 00:03:22;;;;;;;3.20;1.20;;;;;;;;;;5036139;28;20445;-78
2022/05/14 00:05:48;;;;;;;2.57;1.10;;;;;;;;;;5054600;28;20451;-78
2022/05/14 00:08:16;;;;;;;2.17;1.30;;;;;;;;;;5052982;28;20532;-79
2022/05/14 00:13:24;;;;;;;2.57;1.40;;;;;;;;;;5047194;28;20439;-79
2022/05/14 00:15:51;;;;;;;2.73;1.40;;;;;;;;;;5035508;28;20501;-78
2022/05/14 00:18:19;;;;;;;5.17;1.30;;;;;;;;;;5035109;28;20541;-78
2022/05/14 00:20:46;;;;;;;4.13;1.30;;;;;;;;;;5054542;28;20451;-78
2022/05/14 00:23:14;;;;;;;2.43;1.20;;;;;;;;;;5066428;28;20461;-78
2022/05/14 00:25:42;;;;;;;2.13;1.30;;;;;;;;;;5072499;28;20449;-79
2022/05/14 00:28:08;;;;;;;2.03;0.90;;;;;;;;;;5060951;28;20486;-78
2022/05/14 00:30:36;;;;;;;2.40;1.30;;;;;;;;;;5040000;28;20436;-79
2022/05/14 00:33:03;;;;;;;1.70;1.20;;;;;;;;;;5035364;28;20461;-78
2022/05/14 00:35:43;;;;;;;1.97;1.20;;;;;;;;;;5047559;28;20526;-78
2022/05/14 00:38:09;;;;;;;3.73;1.50;;;;;;;;;;5048032;28;20465;-78
2022/05/14 00:40:37;;;;;;;2.87;1.20;;;;;;;;;;5053475;28;20797;-78
2022/05/14 00:43:05;;;;;;;2.70;1.07;;;;;;;;;;5054448;28;20617;-79
2022/05/14 00:45:34;;;;;;;2.90;1.03;;;;;;;;;;5030221;28;20882;-79
2022/05/14 00:48:01;;;;;;;2.33;1.07;;;;;;;;;;5031624;28;20574;-79
2022/05/14 00:50:37;;;;;;;2.30;1.00;;;;;;;;;;5034514;28;20489;-78
2022/05/14 00:53:07;;;;;;;2.20;1.50;;;;;;;;;;5044254;28;20446;-78
2022/05/14 00:55:34;;;;;;;2.23;1.30;;;;;;;;;;5041900;28;20942;-78
2022/05/14 00:58:01;;;;;;;1.53;1.10;;;;;;;;;;5039570;28;20812;-78
2022/05/14 01:00:29;;;;;;;4.33;1.80;;;;;;;;;;5034406;28;20885;-78
2022/05/14 01:02:56;;;;;;;1.80;1.40;;;;;;;;;;5065824;28;20465;-78
2022/05/14 01:05:23;;;;;;;2.93;1.30;;;;;;;;;;5028819;28;20467;-78
2022/05/14 01:07:51;;;;;;;3.00;1.50;;;;;;;;;;5028108;28;20494;-78
2022/05/14 01:10:18;;;;;;;2.97;1.77;;;;;;;;;;5028741;28;20457;-78
2022/05/14 01:12:47;;;;;;;2.53;1.50;;;;;;;;;;5035933;28;20564;-78
2022/05/14 01:15:18;;;;;;;2.07;1.50;;;;;;;;;;5019027;28;20492;-79
2022/05/14 01:17:46;;;;;;;5.47;2.00;;;;;;;;;;5034527;28;20529;-79
2022/05/14 01:20:14;;;;;;;2.13;1.70;;;;;;;;;;5034182;28;20441;-79
2022/05/14 01:22:51;;;;;;;2.03;1.73;;;;;;;;;;5052687;28;20691;-78
2022/05/14 01:28:11;;;;;;;3.63;2.17;;;;;;;;;;5028711;28;20573;-79
2022/05/14 01:30:44;;;;;;;3.37;2.40;;;;;;;;;;5043106;28;20550;-78
2022/05/14 01:33:10;;;;;;;3.40;2.70;;;;;;;;;;5020668;28;20442;-79
2022/05/14 01:35:45;;;;;;;4.80;2.90;;;;;;;;;;5018791;28;20492;-78
2022/05/14 01:38:13;;;;;;;3.60;2.80;;;;;;;;;;5036324;28;20494;-78
2022/05/14 01:40:40;;;;;;;4.07;3.03;;;;;;;;;;5033222;28;20492;-79
2022/05/14 01:43:07;;;;;;;4.73;3.33;;;;;;;;;;5052786;28;20501;-79
2022/05/14 01:45:35;;;;;;;3.60;3.30;;;;;;;;;;5060720;28;20445;-79
2022/05/14 01:48:04;;;;;;;3.80;3.30;;;;;;;;;;5036979;28;20481;-78
2022/05/14 01:50:31;;;;;;;3.73;3.10;;;;;;;;;;5051978;28;20990;-78
2022/05/14 01:52:57;;;;;;;3.87;2.97;;;;;;;;;;5042478;28;20454;-78
2022/05/14 01:55:24;;;;;;;4.30;3.40;;;;;;;;;;5038868;28;20450;-78
2022/05/14 01:57:50;;;;;;;4.60;3.80;;;;;;;;;;5032172;28;20478;-78
2022/05/14 02:00:19;;;;;;;4.67;3.20;;;;;;;;;;5017514;28;20492;-78
2022/05/14 02:02:53;;;;;;;4.20;3.23;;;;;;;;;;5054635;28;20435;-78
2022/05/14 02:05:20;;;;;;;4.80;3.57;;;;;;;;;;5039775;28;20492;-78
2022/05/14 02:07:50;;;;;;;4.20;2.80;;;;;;;;;;5026779;28;20487;-78
2022/05/14 02:10:16;;;;;;;3.73;2.90;;;;;;;;;;5041477;28;20466;-79
2022/05/14 02:12:43;;;;;;;5.80;3.10;;;;;;;;;;5033409;28;20447;-78
2022/05/14 02:15:11;;;;;;;4.60;2.40;;;;;;;;;;5035853;28;20574;-78
2022/05/14 02:17:38;;;;;;;3.47;2.57;;;;;;;;;;5032135;28;20549;-78
2022/05/14 02:20:06;;;;;;;2.47;2.27;;;;;;;;;;5030012;28;20933;-78
2022/05/14 02:22:33;;;;;;;3.47;2.70;;;;;;;;;;5049946;28;20473;-78
2022/05/14 02:25:00;;;;;;;3.33;2.50;;;;;;;;;;5025457;28;20447;-78
2022/05/14 02:27:26;;;;;;;5.20;2.90;;;;;;;;;;5032938;28;20473;-78
2022/05/14 02:29:54;;;;;;;2.63;2.37;;;;;;;;;;5070546;28;20461;-79
2022/05/14 02:32:23;;;;;;;3.53;3.23;;;;;;;;;;5071226;28;20430;-79
2022/05/14 02:34:50;;;;;;;3.87;3.50;;;;;;;;;;5058502;28;20531;-79
2022/05/14 02:37:19;;;;;;;3.50;2.70;;;;;;;;;;5042540;28;20465;-78
2022/05/14 02:39:47;;;;;;;3.53;3.17;;;;;;;;;;5035228;28;20462;-78
2022/05/14 02:42:14;;;;;;;4.00;3.37;;;;;;;;;;5051613;28;20895;-78
2022/05/14 02:44:40;;;;;;;3.67;3.30;;;;;;;;;;5050864;28;20457;-78
2022/05/14 02:47:07;;;;;;;4.83;3.40;;;;;;;;;;5034831;28;20458;-78
2022/05/14 02:49:34;;;;;;;5.43;3.83;;;;;;;;;;5036883;28;20450;-78
2022/05/14 02:52:01;;;;;;;4.87;4.00;;;;;;;;;;5070205;28;20540;-78
2022/05/14 02:54:29;;;;;;;4.93;4.43;;;;;;;;;;5045781;28;20453;-78
2022/05/14 02:56:56;;;;;;;6.30;4.47;;;;;;;;;;5036686;28;20548;-78
2022/05/14 02:59:23;;;;;;;4.90;4.23;;;;;;;;;;5052551;28;20929;-78
2022/05/14 03:01:49;;;;;;;4.23;3.83;;;;;;;;;;5062565;28;20475;-78
2022/05/14 03:04:21;;;;;;;6.00;4.37;;;;;;;;;;5056144;28;20508;-78
2022/05/14 03:06:47;;;;;;;7.30;4.10;;;;;;;;;;5016786;28;20461;-78
2022/05/14 03:09:14;;;;;;;5.60;4.17;;;;;;;;;;5053346;28;20466;-78
2022/05/14 03:11:42;;;;;;;4.80;4.17;;;;;;;;;;5072727;28;20821;-78
2022/05/14 03:14:09;;;;;;;4.10;3.70;;;;;;;;;;5034411;28;20457;-78
2022/05/14 03:16:36;;;;;;;5.83;4.40;;;;;;;;;;5039791;28;20460;-78
2022/05/14 03:19:02;;;;;;;3.97;3.40;;;;;;;;;;5044118;28;20441;-78
2022/05/14 03:21:29;;;;;;;5.60;4.70;;;;;;;;;;5025843;28;20477;-78
2022/05/14 03:23:56;;;;;;;7.90;4.37;;;;;;;;;;5062833;28;20536;-78
2022/05/14 03:26:22;;;;;;;5.80;4.00;;;;;;;;;;5037032;28;20830;-78
2022/05/14 03:28:50;;;;;;;4.57;3.43;;;;;;;;;;5043345;28;20461;-78
2022/05/14 03:31:17;;;;;;;4.77;3.90;;;;;;;;;;5022002;28;20520;-78
2022/05/14 03:33:43;;;;;;;9.33;4.30;;;;;;;;;;5057821;28;20450;-78
2022/05/14 03:36:11;;;;;;;7.30;4.03;;;;;;;;;;5052820;28;20458;-78
2022/05/14 03:38:38;;;;;;;4.60;4.13;;;;;;;;;;5036958;28;20826;-78
2022/05/14 03:41:05;;;;;;;6.33;3.83;;;;;;;;;;5043283;28;20936;-78
2022/05/14 03:43:32;;;;;;;6.23;3.90;;;;;;;;;;5035202;28;21084;-78
2022/05/14 03:46:00;;;;;;;5.30;3.50;;;;;;;;;;5047933;28;20454;-78
2022/05/14 03:48:27;;;;;;;4.43;3.50;;;;;;;;;;5030144;28;20463;-78
2022/05/14 03:50:54;;;;;;;3.57;3.20;;;;;;;;;;5027087;28;20840;-78
2022/05/14 03:53:23;;;;;;;4.30;3.20;;;;;;;;;;5072882;28;20448;-78
2022/05/14 03:55:50;;;;;;;4.30;3.53;;;;;;;;;;5038892;28;20486;-78
2022/05/14 03:58:17;;;;;;;3.50;3.10;;;;;;;;;;5057790;28;20460;-78
2022/05/14 04:00:44;;;;;;;3.50;3.20;;;;;;;;;;5035585;28;20541;-78
2022/05/14 04:03:12;;;;;;;4.60;3.23;;;;;;;;;;5019738;28;20522;-78
2022/05/14 04:05:39;;;;;;;3.83;3.03;;;;;;;;;;5041083;28;20896;-78
2022/05/14 04:08:06;;;;;;;3.50;3.20;;;;;;;;;;5054499;28;20465;-78
2022/05/14 04:10:32;;;;;;;5.60;3.30;;;;;;;;;;5047154;28;20480;-78
2022/05/14 04:12:59;;;;;;;3.60;3.00;;;;;;;;;;5041960;28;20434;-78
2022/05/14 04:15:27;;;;;;;4.60;3.30;;;;;;;;;;5055209;28;20461;-78
2022/05/14 04:17:54;;;;;;;3.70;3.33;;;;;;;;;;5036016;28;20443;-78
2022/05/14 04:20:23;;;;;;;3.83;3.17;;;;;;;;;;5059163;28;20453;-78
2022/05/14 04:22:50;;;;;;;5.47;3.80;;;;;;;;;;5035048;28;20439;-78
2022/05/14 04:25:18;;;;;;;4.60;3.43;;;;;;;;;;5035243;28;20504;-78
2022/05/14 04:27:45;;;;;;;3.40;3.10;;;;;;;;;;5029289;28;20454;-78
2022/05/14 04:30:13;;;;;;;3.53;3.23;;;;;;;;;;5043117;28;20515;-78
2022/05/14 04:32:40;;;;;;;3.27;3.00;;;;;;;;;;5055233;28;20553;-79
2022/05/14 04:35:07;;;;;;;4.10;3.20;;;;;;;;;;5057948;28;20928;-78
2022/05/14 04:37:36;;;;;;;3.93;3.03;;;;;;;;;;5018704;28;21000;-78
2022/05/14 04:40:02;;;;;;;4.00;3.60;;;;;;;;;;5066054;28;20528;-78
2022/05/14 04:42:29;;;;;;;3.50;3.20;;;;;;;;;;5035288;28;20799;-78
2022/05/14 04:44:56;;;;;;;3.40;3.03;;;;;;;;;;5036028;28;20952;-78
2022/05/14 04:47:23;;;;;;;3.87;3.00;;;;;;;;;;5062568;28;20796;-78
2022/05/14 04:49:50;;;;;;;4.77;2.93;;;;;;;;;;5056463;28;20474;-78
2022/05/14 04:52:20;;;;;;;2.90;2.60;;;;;;;;;;5049242;28;20450;-78
2022/05/14 04:54:50;;;;;;;2.93;2.63;;;;;;;;;;5025666;28;20455;-78
2022/05/14 04:57:17;;;;;;;2.50;2.13;;;;;;;;;;5019239;28;20546;-78
2022/05/14 04:59:43;;;;;;;3.30;3.00;;;;;;;;;;5051929;28;20435;-78
2022/05/14 05:04:58;;;;;;;5.03;2.77;;;;;;;;;;5046670;28;20520;-78
2022/05/14 05:07:24;;;;;;;2.83;2.53;;;;;;;;;;5033882;28;20435;-79
2022/05/14 05:09:53;;;;;;;5.20;2.90;;;;;;;;;;5025061;28;20473;-79
2022/05/14 05:12:20;;;;;;;3.97;2.43;;;;;;;;;;5038242;28;20435;-79
2022/05/14 05:14:46;;;;;;;5.70;2.90;;;;;;;;;;5053455;28;20458;-79
2022/05/14 05:17:13;;;;;;;4.47;3.20;;;;;;;;;;5051877;28;20438;-79
2022/05/14 05:19:39;;;;;;;2.77;2.57;;;;;;;;;;5042480;28;20960;-79
2022/05/14 05:22:06;;;;;;;5.57;3.10;;;;;;;;;;5054949;28;20482;-79
2022/05/14 05:24:36;;;;;;;3.53;2.60;;;;;;;;;;5051026;28;20447;-79
2022/05/14 05:27:04;;;;;;;3.80;2.97;;;;;;;;;;5021558;28;20465;-79
2022/05/14 05:29:31;;;;;;;3.43;3.00;;;;;;;;;;5046076;28;20554;-79
2022/05/14 05:31:57;;;;;;;2.80;2.40;;;;;;;;;;5034324;28;20443;-79
2022/05/14 05:34:24;;;;;;;5.80;3.20;;;;;;;;;;5039984;28;20564;-79
2022/05/14 05:36:52;;;;;;;5.30;3.37;;;;;;;;;;5038283;28;20795;-79
2022/05/14 05:39:18;;;;;;;2.60;2.40;;;;;;;;;;5046902;28;20917;-79
2022/05/14 05:41:45;;;;;;;4.43;2.93;;;;;;;;;;5034886;28;20477;-80
2022/05/14 05:44:13;;;;;;;3.53;3.23;;;;;;;;;;5071213;28;20567;-79
2022/05/14 05:46:40;;;;;;;4.20;3.40;;;;;;;;;;5056450;28;20477;-79
2022/05/14 05:49:07;;;;;;;9.17;3.83;;;;;;;;;;5033665;28;20470;-79
2022/05/14 05:51:34;;;;;;;3.90;3.27;;;;;;;;;;5061490;28;20454;-79
2022/05/14 05:56:47;;;;;;;5.27;3.20;;;;;;;;;;5023600;28;20445;-79
2022/05/14 05:59:16;;;;;;;4.47;2.83;;;;;;;;;;5051493;28;20514;-80
2022/05/14 06:01:43;;;;;;;5.60;3.23;;;;;;;;;;5053541;28;20528;-80
2022/05/14 06:04:09;;;;;;;3.43;3.13;;;;;;;;;;5054586;28;20815;-80
2022/05/14 06:06:36;;;;;;;4.07;3.30;;;;;;;;;;5040687;28;20895;-80
2022/05/14 06:09:03;;;;;;;4.23;2.70;;;;;;;;;;5055709;28;20876;-80
2022/05/14 06:11:31;;;;;;;5.47;3.83;;;;;;;;;;5039164;28;20438;-79
2022/05/14 06:13:58;;;;;;;4.33;2.93;;;;;;;;;;5055882;28;20507;-80
2022/05/14 06:16:26;;;;;;;2.90;2.70;;;;;;;;;;5063162;28;20794;-80
2022/05/14 06:18:53;;;;;;;4.23;2.60;;;;;;;;;;5060343;28;20446;-80
2022/05/14 06:21:19;;;;;;;5.27;3.13;;;;;;;;;;5049200;28;20435;-80
2022/05/14 06:23:46;;;;;;;4.33;3.13;;;;;;;;;;5039208;28;20439;-80
2022/05/14 06:26:12;;;;;;;7.80;3.00;;;;;;;;;;5044268;28;20472;-80
2022/05/14 06:28:39;;;;;;;3.80;2.90;;;;;;;;;;5041700;28;20467;-80
2022/05/14 06:31:05;;;;;;;3.40;2.80;;;;;;;;;;5032993;28;20926;-80
2022/05/14 06:33:33;;;;;;;3.77;2.67;;;;;;;;;;5036286;28;20442;-80
2022/05/14 06:36:00;;;;;;;3.20;2.60;;;;;;;;;;5058145;28;20924;-80
2022/05/14 06:38:27;;;;;;;3.50;2.37;;;;;;;;;;5034705;28;20443;-80
2022/05/14 06:40:54;;;;;;;3.67;2.70;;;;;;;;;;5031411;28;20546;-80
2022/05/14 06:43:21;;;;;;;3.60;3.10;;;;;;;;;;5058502;28;20823;-81
2022/05/14 06:45:48;;;;;;;4.93;3.77;;;;;;;;;;5042919;28;20527;-80
2022/05/14 06:48:14;;;;;;;4.60;2.90;;;;;;;;;;5046404;28;20552;-80
2022/05/14 06:50:44;;;;;;;3.23;2.87;;;;;;;;;;5051270;28;20496;-81
2022/05/14 06:53:10;;;;;;;4.03;2.70;;;;;;;;;;5065467;28;20456;-81
2022/05/14 06:55:38;;;;;;;3.90;2.83;;;;;;;;;;5046531;28;20445;-80
2022/05/14 06:58:10;;;;;;;3.00;2.20;;;;;;;;;;5054145;28;20423;-80
2022/05/14 07:00:36;;;;;;;3.00;2.50;;;;;;;;;;5054224;28;20445;-81
2022/05/14 07:08:29;;;;;;;4.43;2.30;;;;;;;;;;5051941;28;20436;-81
2022/05/14 07:10:56;;;;;;;8.67;2.93;;;;;;;;;;5070794;28;20936;-81
2022/05/14 07:13:22;;;;;;;4.17;2.90;;;;;;;;;;5051609;28;20499;-81
2022/05/14 07:15:49;;;;;;;3.10;2.57;;;;;;;;;;5023986;28;20462;-81
2022/05/14 07:18:15;;;;;;;4.60;3.20;;;;;;;;;;5048779;28;20454;-81
2022/05/14 07:20:42;;;;;;;3.30;2.80;;;;;;;;;;5072087;28;20432;-81
2022/05/14 07:23:10;;;;;;;6.13;3.10;;;;;;;;;;5072555;28;20454;-83
2022/05/14 07:25:36;;;;;;;3.80;2.77;;;;;;;;;;5024341;28;20452;-81
2022/05/14 07:28:03;;;;;;;3.23;2.93;;;;;;;;;;5043208;28;20769;-81
2022/05/14 07:30:29;;;;;;;6.13;2.97;;;;;;;;;;5035778;28;20463;-81
2022/05/14 07:32:55;;;;;;;5.93;2.67;;;;;;;;;;5054200;28;20529;-81
2022/05/14 07:35:23;;;;;;;7.20;2.40;;;;;;;;;;5068598;28;20446;-81
2022/05/14 07:37:52;;;;;;;2.80;2.60;;;;;;;;;;5053496;28;20458;-81
2022/05/14 07:40:21;;;;;;;7.60;2.30;;;;;;;;;;5053504;28;20437;-81
2022/05/14 07:42:50;;;;;;;2.63;1.80;;;;;;;;;;5053126;28;20528;-81
2022/05/14 07:45:19;;;;;;;3.70;2.10;;;;;;;;;;5039276;28;20470;-81
2022/05/14 07:47:46;;;;;;;2.20;2.00;;;;;;;;;;5072748;28;20905;-81
2022/05/14 07:50:13;;;;;;;2.30;2.03;;;;;;;;;;5052672;28;20465;-81
2022/05/14 07:52:41;;;;;;;2.27;1.60;;;;;;;;;;5072327;28;20545;-81
2022/05/14 07:55:09;;;;;;;3.93;2.00;;;;;;;;;;5071947;28;20492;-81
2022/05/14 07:57:37;;;;;;;1.47;1.33;;;;;;;;;;5054432;28;20992;-81
2022/05/14 08:00:05;;;;;;;2.00;1.60;;;;;;;;;;5049142;28;20446;-81
2022/05/14 08:02:39;;;;;;;2.60;1.73;;;;;;;;;;5061987;28;20454;-81
2022/05/14 08:05:08;;;;;;;3.60;1.83;;;;;;;;;;5071525;28;20912;-81
2022/05/14 08:07:35;;;;;;;2.50;1.87;;;;;;;;;;5029920;28;20451;-82
2022/05/14 08:10:01;;;;;;;3.63;1.93;;;;;;;;;;5065930;28;20470;-81
2022/05/14 08:12:33;;;;;;;2.47;1.63;;;;;;;;;;5055000;28;20446;-82
2022/05/14 08:15:01;;;;;;;2.07;1.50;;;;;;;;;;5058928;28;20448;-81
2022/05/14 08:17:27;;;;;;;2.17;1.50;;;;;;;;;;5064860;28;20451;-81
2022/05/14 08:19:54;;;;;;;3.17;1.70;;;;;;;;;;5064633;28;20505;-81
2022/05/14 08:25:07;;;;;;;4.77;2.70;;;;;;;;;;5069024;28;20960;-81
2022/05/14 08:27:44;;;;;;;2.70;2.50;;;;;;;;;;5044778;28;20459;-81
2022/05/14 08:30:12;;;;;;;4.07;3.00;;;;;;;;;;5038952;28;21033;-80
2022/05/14 08:32:39;;;;;;;4.77;2.70;;;;;;;;;;5068023;28;20458;-80
2022/05/14 08:35:08;;;;;;;4.70;3.23;;;;;;;;;;5021421;28;20960;-80
2022/05/14 08:37:35;;;;;;;4.03;3.03;;;;;;;;;;5046060;28;20443;-80
2022/05/14 08:40:05;;;;;;;4.37;3.10;;;;;;;;;;5065275;28;20438;-80
2022/05/14 08:42:34;;;;;;;3.83;3.00;;;;;;;;;;5050448;28;20510;-80
2022/05/14 08:45:01;;;;;;;5.20;3.10;;;;;;;;;;5051861;28;20457;-81
2022/05/14 08:47:31;;;;;;;3.03;2.73;;;;;;;;;;5062682;28;20539;-81
2022/05/14 08:49:58;;;;;;;9.60;4.50;;;;;;;;;;5042695;28;20459;-80
2022/05/14 08:52:26;;;;;;;4.37;3.10;;;;;;;;;;5064021;28;20477;-81
2022/05/14 08:54:57;;;;;;;4.30;2.60;;;;;;;;;;5061645;28;20461;-81
2022/05/14 08:57:26;;;;;;;4.70;3.00;;;;;;;;;;5045455;28;20447;-80
2022/05/14 08:59:55;;;;;;;3.37;2.60;;;;;;;;;;5071765;28;20496;-80
2022/05/14 09:02:24;;;;;;;4.00;3.20;;;;;;;;;;5038230;28;20443;-80
2022/05/14 09:04:56;;;;;;;4.90;3.30;;;;;;;;;;5056914;28;20462;-81
2022/05/14 09:07:22;;;;;;;5.50;3.50;;;;;;;;;;5064038;28;20460;-80
2022/05/14 09:09:50;;;;;;;3.63;2.83;;;;;;;;;;5042286;28;20553;-80
2022/05/14 09:12:18;;;;;;;3.30;2.83;;;;;;;;;;5040368;28;20538;-80
2022/05/14 09:14:45;;;;;;;3.30;3.00;;;;;;;;;;5067753;28;20811;-79
2022/05/14 09:17:14;;;;;;;3.10;2.80;;;;;;;;;;5028995;28;20450;-80
2022/05/14 09:19:42;;;;;;;3.40;2.83;;;;;;;;;;5047501;28;20809;-80
2022/05/14 09:22:13;;;;;;;3.30;3.00;;;;;;;;;;5040644;28;20457;-79
2022/05/14 09:24:42;;;;;;;3.10;2.80;;;;;;;;;;5048236;28;20909;-80
2022/05/14 09:27:12;;;;;;;5.07;2.73;;;;;;;;;;5054925;28;20478;-80
2022/05/14 09:29:40;;;;;;;3.07;2.80;;;;;;;;;;5043191;28;20824;-80
2022/05/14 09:32:11;;;;;;;5.40;2.80;;;;;;;;;;5069955;28;20457;-80
2022/05/14 09:34:38;;;;;;;4.63;2.77;;;;;;;;;;5059214;28;20546;-80
2022/05/14 09:37:08;;;;;;;3.57;2.60;;;;;;;;;;5056352;28;20457;-80
2022/05/14 09:39:35;;;;;;;2.73;2.53;;;;;;;;;;5027368;28;20447;-80
2022/05/14 09:42:04;;;;;;;3.90;2.83;;;;;;;;;;5048957;28;20470;-80
2022/05/14 09:44:35;;;;;;;5.73;2.50;;;;;;;;;;5050345;28;20438;-80
2022/05/14 09:47:06;;;;;;;4.27;2.83;;;;;;;;;;5054966;28;20952;-80
2022/05/14 09:49:39;;;;;;;6.33;2.70;;;;;;;;;;5051344;28;20928;-80
2022/05/14 09:52:06;;;;;;;2.50;2.30;;;;;;;;;;5033024;28;20928;-79
2022/05/14 09:54:35;;;;;;;3.67;2.30;;;;;;;;;;5058989;28;20438;-80
2022/05/14 09:57:13;;;;;;;3.07;2.43;;;;;;;;;;5036708;28;20825;-80
2022/05/14 09:59:50;;;;;;;2.77;2.53;;;;;;;;;;5051634;28;20984;-80
2022/05/14 10:02:22;;;;;;;3.10;2.83;;;;;;;;;;5055569;28;20454;-80
2022/05/14 10:04:55;;;;;;;3.10;2.80;;;;;;;;;;5053865;28;20496;-80
2022/05/14 10:07:25;;;;;;;6.60;2.97;;;;;;;;;;5032466;28;20550;-81
2022/05/14 10:09:58;;;;;;;4.60;3.00;;;;;;;;;;5057741;28;20473;-80
2022/05/14 10:12:28;;;;;;;3.40;2.63;;;;;;;;;;5050432;28;20446;-80
2022/05/14 10:15:02;;;;;;;3.87;3.00;;;;;;;;;;5050030;28;20518;-79
2022/05/14 10:17:41;;;;;;;2.57;2.10;;;;;;;;;;5051892;28;20462;-79
2022/05/14 10:20:24;;;;;;;3.60;2.70;;;;;;;;;;5058793;28;20744;-80
2022/05/14 10:28:37;;;;;;;3.53;3.00;;;;;;;;;;5038217;28;20458;-79
2022/05/14 10:31:08;;;;;;;4.47;3.27;;;;;;;;;;5052812;28;20474;-80
2022/05/14 10:33:36;;;;;;;3.37;2.70;;;;;;;;;;5065589;28;20884;-79
2022/05/14 10:36:04;;;;;;;3.83;2.60;;;;;;;;;;5036507;28;20453;-79
2022/05/14 10:38:33;;;;;;;3.50;3.07;;;;;;;;;;5039223;28;20458;-79
2022/05/14 10:41:02;;;;;;;3.97;2.70;;;;;;;;;;5052664;28;20564;-79
2022/05/14 10:43:33;;;;;;;4.90;3.80;;;;;;;;;;5026112;28;20497;-79
2022/05/14 10:46:05;;;;;;;4.00;3.60;;;;;;;;;;5034967;28;20503;-79
2022/05/14 10:48:37;;;;;;;4.00;2.97;;;;;;;;;;5048944;28;20516;-79
2022/05/14 10:51:05;;;;;;;4.43;3.13;;;;;;;;;;5033480;28;20520;-79
2022/05/14 10:53:31;;;;;;;6.70;3.77;;;;;;;;;;5050917;28;20439;-79
2022/05/14 10:56:01;;;;;;;5.73;2.90;;;;;;;;;;5034371;28;21129;-79
2022/05/14 10:58:38;;;;;;;5.30;3.03;;;;;;;;;;5066173;28;20433;-79
2022/05/14 11:01:27;;;;;;;3.83;3.40;;;;;;;;;;5046603;28;20423;-79
2022/05/14 11:03:55;;;;;;;3.70;3.10;;;;;;;;;;5041039;28;20821;-79
2022/05/14 11:06:27;;;;;;;3.60;2.80;;;;;;;;;;5039764;28;20803;-79
2022/05/14 11:08:55;;;;;;;3.33;2.93;;;;;;;;;;5035476;28;20451;-79
2022/05/14 11:11:25;;;;;;;3.53;2.67;;;;;;;;;;5052212;28;20572;-79
2022/05/14 11:13:57;;;;;;;3.80;3.27;;;;;;;;;;5063016;28;20527;-79
2022/05/14 11:16:23;;;;;;;7.30;3.60;;;;;;;;;;5070347;28;20427;-79
2022/05/14 11:18:52;;;;;;;4.53;2.80;;;;;;;;;;5057155;28;20458;-79
2022/05/14 11:21:22;;;;;;;2.63;2.43;;;;;;;;;;5064097;28;20415;-79
2022/05/14 11:23:51;;;;;;;4.30;3.03;;;;;;;;;;5051617;28;20429;-79
2022/05/14 11:26:18;;;;;;;4.13;2.77;;;;;;;;;;5037142;28;20999;-79
2022/05/14 11:28:45;;;;;;;2.83;2.63;;;;;;;;;;5036119;28;20705;-79
2022/05/14 11:31:16;;;;;;;5.97;2.63;;;;;;;;;;5052347;28;20467;-79
2022/05/14 11:33:43;;;;;;;4.00;2.73;;;;;;;;;;5038480;28;20486;-79
2022/05/14 11:36:22;;;;;;;3.20;2.60;;;;;;;;;;5058190;28;20792;-79
2022/05/14 11:39:04;;;;;;;4.30;2.90;;;;;;;;;;5056592;28;20536;-79
2022/05/14 11:41:31;;;;;;;4.67;3.23;;;;;;;;;;5035308;28;20484;-79
2022/05/14 11:43:57;;;;;;;8.60;3.00;;;;;;;;;;5041440;28;20508;-79
2022/05/14 11:46:27;;;;;;;3.60;2.40;;;;;;;;;;5055762;28;20446;-79
2022/05/14 11:48:54;;;;;;;7.83;3.63;;;;;;;;;;5035674;28;20427;-79
2022/05/14 11:51:28;;;;;;;4.03;2.50;;;;;;;;;;5053733;28;20450;-79
2022/05/14 11:54:00;;;;;;;3.60;2.60;;;;;;;;;;5034162;28;20608;-79
2022/05/14 11:56:31;;;;;;;3.27;2.57;;;;;;;;;;5040542;28;20810;-79
2022/05/14 11:59:03;;;;;;;2.83;2.43;;;;;;;;;;5050162;28;20443;-79
2022/05/14 12:01:33;;;;;;;5.27;2.40;;;;;;;;;;5058824;28;20921;-79
2022/05/14 12:04:01;;;;;;;5.43;2.37;;;;;;;;;;5049481;28;20457;-79
2022/05/14 12:06:48;;;;;;;3.47;2.73;;;;;;;;;;5042436;28;20443;-79
2022/05/14 12:09:24;;;;;;;2.67;2.47;;;;;;;;;;5052398;28;20755;-79
2022/05/14 12:11:56;;;;;;;3.00;2.70;;;;;;;;;;5068948;28;20476;-79
2022/05/14 12:14:28;;;;;;;4.63;2.80;;;;;;;;;;5054776;28;20426;-83
2022/05/14 12:16:56;;;;;;;4.20;2.80;;;;;;;;;;5054835;28;20479;-79
2022/05/14 12:19:25;;;;;;;3.63;2.87;;;;;;;;;;5047171;28;20446;-79
2022/05/14 12:21:54;;;;;;;4.93;2.23;;;;;;;;;;5049933;28;20534;-79
2022/05/14 12:24:22;;;;;;;4.97;2.37;;;;;;;;;;5059866;28;20435;-79
2022/05/14 12:26:49;;;;;;;4.67;2.13;;;;;;;;;;5042631;28;20452;-79
2022/05/14 12:29:16;;;;;;;3.00;1.83;;;;;;;;;;5035455;28;20447;-79
2022/05/14 12:34:33;;;;;;;3.07;1.93;;;;;;;;;;5056300;28;20577;-79
2022/05/14 12:37:02;;;;;;;3.97;2.40;;;;;;;;;;5064282;28;20450;-79
2022/05/14 12:39:30;;;;;;;2.83;2.30;;;;;;;;;;5056724;28;20466;-79
2022/05/14 12:41:59;;;;;;;2.93;2.23;;;;;;;;;;5033426;28;20501;-79
2022/05/14 12:44:27;;;;;;;4.10;2.90;;;;;;;;;;5048057;28;20470;-79
2022/05/14 12:46:56;;;;;;;3.40;2.33;;;;;;;;;;5038125;28;21016;-79
2022/05/14 12:49:24;;;;;;;3.37;2.00;;;;;;;;;;5034203;28;20500;-79
2022/05/14 12:51:51;;;;;;;3.50;2.10;;;;;;;;;;5052542;28;20874;-79
2022/05/14 12:54:26;;;;;;;3.53;2.30;;;;;;;;;;5046279;28;20450;-79
2022/05/14 13:00:23;;;;;;;7.20;3.10;;;;;;;;;;4968577;28;20554;-74
2022/05/14 13:02:52;;;;;;;3.33;2.17;;;;;;;;;;4953389;28;20439;-74
2022/05/14 13:05:20;;;;;;;6.00;2.17;;;;;;;;;;4947104;28;20506;-74
2022/05/14 13:07:48;;;;;;;3.23;1.90;;;;;;;;;;4962881;28;20786;-74
2022/05/14 13:10:18;;;;;;;4.40;4.00;;;;;;;;;;4954604;28;20458;-74
2022/05/14 13:12:48;;;;;;;3.90;1.77;;;;;;;;;;4940761;28;20488;-75
2022/05/14 13:15:15;;;;;;;2.87;1.80;;;;;;;;;;4955565;28;20438;-74
2022/05/14 13:17:42;;;;;;;3.90;2.10;;;;;;;;;;4954808;28;20438;-74
2022/05/14 13:20:15;;;;;;;3.67;2.17;;;;;;;;;;4963039;28;20545;-74
2022/05/14 13:22:43;;;;;;;3.10;2.00;;;;;;;;;;4949357;29;20450;-74
2022/05/14 13:25:26;;;;;;;4.33;1.97;;;;;;;;;;4957843;28;20534;-74
2022/05/14 13:27:52;;;;;;;3.37;1.90;;;;;;;;;;4943088;28;20470;-74
2022/05/14 13:30:28;;;;;;;3.50;2.20;;;;;;;;;;4942024;29;20446;-74
2022/05/14 13:33:03;;;;;;;2.33;2.13;;;;;;;;;;4944522;29;20482;-74
2022/05/14 13:38:16;;;;;;;4.50;2.67;;;;;;;;;;4908616;28;20494;-74
2022/05/14 13:40:51;;;;;;;5.00;2.10;;;;;;;;;;4950336;28;20517;-76
2022/05/14 13:43:19;;;;;;;3.70;2.13;;;;;;;;;;4948200;29;20554;-76
2022/05/14 13:45:50;;;;;;;2.83;2.10;;;;;;;;;;4954130;28;20488;-76
2022/05/14 13:48:20;;;;;;;4.30;2.10;;;;;;;;;;4962980;28;20466;-74
2022/05/14 13:50:55;;;;;;;2.80;2.10;;;;;;;;;;4958620;28;20443;-74
2022/05/14 13:53:23;;;;;;;8.47;2.07;;;;;;;;;;4934736;29;20458;-74
2022/05/14 13:55:59;;;;;;;4.90;2.20;;;;;;;;;;4940479;28;20451;-74
2022/05/14 13:58:26;;;;;;;2.40;2.10;;;;;;;;;;4958550;28;20975;-74
2022/05/14 14:00:54;;;;;;;3.53;2.17;;;;;;;;;;4955107;28;20980;-74
2022/05/14 14:03:22;;;;;;;5.07;3.20;;;;;;;;;;4934365;29;20459;-74
2022/05/14 14:05:50;;;;;;;3.37;2.57;;;;;;;;;;4947649;28;20844;-74
2022/05/14 14:08:18;;;;;;;3.03;2.73;;;;;;;;;;4938857;29;20466;-74
2022/05/14 14:10:47;;;;;;;2.83;2.53;;;;;;;;;;4930152;28;20832;-74
2022/05/14 14:13:15;;;;;;;5.30;2.20;;;;;;;;;;4945786;29;20443;-74
2022/05/14 14:15:41;;;;;;;5.23;2.17;;;;;;;;;;4953729;28;20542;-74
2022/05/14 14:18:08;;;;;;;3.20;1.93;;;;;;;;;;4968794;28;20465;-74
2022/05/14 14:20:36;;;;;;;2.13;1.87;;;;;;;;;;4929347;29;21009;-74
2022/05/14 14:23:05;;;;;;;3.27;1.67;;;;;;;;;;4939899;28;20430;-74
2022/05/14 14:25:33;;;;;;;2.30;1.77;;;;;;;;;;4954742;28;20848;-74
2022/05/14 14:28:00;;;;;;;2.30;2.03;;;;;;;;;;4961904;28;20561;-74
2022/05/14 14:30:28;;;;;;;2.80;2.27;;;;;;;;;;4934173;29;20462;-76
2022/05/14 14:32:54;;;;;;;1.90;1.80;;;;;;;;;;4953639;28;20509;-74
2022/05/14 14:35:21;;;;;;;2.17;1.73;;;;;;;;;;4953956;28;20446;-75
2022/05/14 14:37:47;;;;;;;2.30;1.83;;;;;;;;;;4948944;28;20518;-75
2022/05/14 14:40:15;;;;;;;2.27;1.93;;;;;;;;;;4960714;28;20458;-74
2022/05/14 14:42:43;;;;;;;2.73;2.10;;;;;;;;;;4971705;28;20411;-74
2022/05/14 14:45:11;;;;;;;1.97;1.80;;;;;;;;;;4953674;28;20963;-77
2022/05/14 14:47:39;;;;;;;2.17;1.97;;;;;;;;;;4935104;28;20847;-75
2022/05/14 14:50:06;;;;;;;3.20;2.47;;;;;;;;;;4947794;28;20482;-75
2022/05/14 14:52:33;;;;;;;5.17;2.47;;;;;;;;;;4971303;28;20796;-75
2022/05/14 14:54:59;;;;;;;2.00;1.80;;;;;;;;;;4952052;28;20796;-75
2022/05/14 14:57:26;;;;;;;5.87;2.90;;;;;;;;;;4938933;28;20550;-75
2022/05/14 14:59:52;;;;;;;4.20;2.00;;;;;;;;;;4945789;28;20477;-75
2022/05/14 15:02:21;;;;;;;2.30;2.10;;;;;;;;;;4971729;28;20874;-75
2022/05/14 15:04:50;;;;;;;2.30;2.10;;;;;;;;;;4969979;28;20461;-75
2022/05/14 15:07:17;;;;;;;3.73;2.23;;;;;;;;;;4948789;29;20439;-75
2022/05/14 15:09:43;;;;;;;3.00;2.40;;;;;;;;;;4942127;28;20478;-75
2022/05/14 15:12:10;;;;;;;3.30;1.83;;;;;;;;;;4949241;28;20473;-75
2022/05/14 15:14:37;;;;;;;2.63;2.30;;;;;;;;;;4941802;28;20801;-75
2022/05/14 15:17:04;;;;;;;2.40;2.20;;;;;;;;;;4974565;28;20442;-75
2022/05/14 15:19:31;;;;;;;4.00;2.00;;;;;;;;;;4932958;29;20466;-75
2022/05/14 15:21:59;;;;;;;2.37;2.10;;;;;;;;;;4919980;29;20499;-75
2022/05/14 15:24:25;;;;;;;2.03;1.83;;;;;;;;;;4960342;28;20438;-76